Time;durP1;ratioP1;P1;durP2;ratioP2;P2;SDS_P1;SDS_P2;PMS_P1;PMS_P2;Temp;Humidity;BMP_temperature;BMP_pressure;BME280_temperature;BME280_humidity;BME280_pressure;Samples;Min_cycle;Max_cycle;Signal;HPM_P1;HPM_P2
2021/04/14 00:00:49;;;;;;;1.00;1.00;;;5.40;88.50;;;;;;5000831;28;20213;-69
2021/04/14 00:03:20;;;;;;;2.55;2.35;;;5.40;89.00;;;;;;5000590;28;20213;-68
2021/04/14 00:05:47;;;;;;;2.42;1.30;;;5.40;88.90;;;;;;5000633;28;20275;-68
2021/04/14 00:08:15;;;;;;;1.02;1.02;;;5.40;88.70;;;;;;4989216;28;20237;-69
2021/04/14 00:10:43;;;;;;;1.20;1.10;;;5.30;88.90;;;;;;5016703;28;20243;-68
2021/04/14 00:13:13;;;;;;;1.10;1.08;;;5.40;89.20;;;;;;5020600;28;20209;-68
2021/04/14 00:15:43;;;;;;;1.10;1.10;;;5.40;90.10;;;;;;5002386;28;20268;-67
2021/04/14 00:18:11;;;;;;;1.90;1.77;;;5.40;89.30;;;;;;4984833;28;20243;-69
2021/04/14 00:20:38;;;;;;;2.15;2.03;;;5.40;89.10;;;;;;4985242;28;20210;-67
2021/04/14 00:23:06;;;;;;;1.80;1.67;;;5.40;89.50;;;;;;4994822;28;20847;-68
2021/04/14 00:25:35;;;;;;;2.15;1.20;;;5.40;89.20;;;;;;4994672;28;20267;-68
2021/04/14 00:28:03;;;;;;;1.25;1.15;;;5.40;89.40;;;;;;4988428;28;20213;-68
2021/04/14 00:30:29;;;;;;;0.70;0.70;;;5.30;90.00;;;;;;5003723;28;20212;-68
2021/04/14 00:32:56;;;;;;;1.50;1.50;;;5.30;90.00;;;;;;5007204;28;20218;-69
2021/04/14 00:35:25;;;;;;;0.70;0.70;;;5.20;90.10;;;;;;4995979;28;20214;-67
2021/04/14 00:37:52;;;;;;;2.35;1.55;;;5.20;90.10;;;;;;4991989;28;20237;-68
2021/04/14 00:40:29;;;;;;;1.38;1.35;;;5.20;90.20;;;;;;5001752;28;20209;-69
2021/04/14 00:42:56;;;;;;;2.08;1.55;;;5.20;90.10;;;;;;5000271;28;20209;-67
2021/04/14 00:45:23;;;;;;;2.40;1.13;;;5.20;90.00;;;;;;4999782;28;20467;-68
2021/04/14 00:47:50;;;;;;;0.90;0.90;;;5.20;90.00;;;;;;4999839;28;20220;-68
2021/04/14 00:50:21;;;;;;;1.15;0.70;;;5.20;90.20;;;;;;4999607;28;20249;-68
2021/04/14 00:52:48;;;;;;;1.48;1.38;;;5.20;90.40;;;;;;5000165;28;20205;-69
2021/04/14 00:55:18;;;;;;;0.60;0.60;;;5.20;90.40;;;;;;4998041;28;20449;-69
2021/04/14 00:57:44;;;;;;;0.57;0.57;;;5.10;90.20;;;;;;4999571;28;20438;-69
2021/04/14 01:00:33;;;;;;;0.70;0.70;;;5.10;90.60;;;;;;5000952;28;20229;-68
2021/04/14 01:03:01;;;;;;;0.70;0.70;;;5.10;90.30;;;;;;5000025;28;20205;-69
2021/04/14 01:05:33;;;;;;;0.60;0.60;;;5.10;90.20;;;;;;4999643;28;20219;-69
2021/04/14 01:08:00;;;;;;;1.58;1.02;;;5.20;90.40;;;;;;4999648;28;20233;-69
2021/04/14 01:10:26;;;;;;;1.95;1.13;;;5.10;90.40;;;;;;4988164;28;20213;-68
2021/04/14 01:12:54;;;;;;;0.85;0.85;;;5.10;90.40;;;;;;4979420;28;20219;-68
2021/04/14 01:15:30;;;;;;;0.65;0.65;;;5.00;90.30;;;;;;4999342;28;20233;-68
2021/04/14 01:17:57;;;;;;;1.52;1.42;;;5.10;90.40;;;;;;4999389;28;20245;-68
2021/04/14 01:20:24;;;;;;;0.82;0.82;;;5.10;90.60;;;;;;4989935;28;20210;-67
2021/04/14 01:22:51;;;;;;;0.90;0.90;;;5.20;90.40;;;;;;4995070;28;20220;-67
2021/04/14 01:25:26;;;;;;;0.68;0.68;;;4.10;89.90;;;;;;4999510;28;20209;-68
2021/04/14 01:27:53;;;;;;;0.75;0.75;;;5.10;90.20;;;;;;5012874;28;20210;-69
2021/04/14 01:30:25;;;;;;;0.70;0.70;;;5.10;90.40;;;;;;5002855;28;20214;-69
2021/04/14 01:32:53;;;;;;;1.70;1.60;;;5.10;90.40;;;;;;5006918;28;20205;-68
2021/04/14 01:35:22;;;;;;;0.73;0.73;;;5.20;90.20;;;;;;5010248;28;20208;-69
2021/04/14 01:37:50;;;;;;;0.70;0.70;;;5.20;90.20;;;;;;4990105;28;20240;-69
2021/04/14 01:40:19;;;;;;;2.10;1.95;;;5.10;90.30;;;;;;4997243;28;20215;-69
2021/04/14 01:42:46;;;;;;;1.00;1.00;;;4.20;90.00;;;;;;5007512;28;20216;-69
2021/04/14 01:45:15;;;;;;;3.10;2.25;;;5.20;90.30;;;;;;5012600;28;20209;-71
2021/04/14 01:47:42;;;;;;;0.60;0.60;;;5.10;90.20;;;;;;4998840;28;20213;-68
2021/04/14 01:50:12;;;;;;;0.80;0.80;;;5.10;90.40;;;;;;4985813;28;20206;-70
2021/04/14 01:52:38;;;;;;;1.05;0.98;;;5.10;90.50;;;;;;4986763;28;20531;-69
2021/04/14 01:55:06;;;;;;;0.60;0.60;;;5.10;90.40;;;;;;4991042;28;20212;-68
2021/04/14 01:57:33;;;;;;;0.57;0.57;;;5.10;90.50;;;;;;4993359;28;20244;-72
2021/04/14 01:59:59;;;;;;;1.05;1.05;;;5.10;90.40;;;;;;4999658;28;20710;-69
2021/04/14 02:02:26;;;;;;;0.60;0.60;;;5.00;90.50;;;;;;4998502;28;20216;-68
2021/04/14 02:04:53;;;;;;;1.00;0.88;;;5.10;90.60;;;;;;5008511;28;20212;-68
2021/04/14 02:07:19;;;;;;;1.10;0.80;;;5.00;90.70;;;;;;5001497;28;20222;-68
2021/04/14 02:09:46;;;;;;;0.80;0.80;;;5.10;90.80;;;;;;4992143;28;20233;-68
2021/04/14 02:12:14;;;;;;;0.63;0.63;;;5.00;90.80;;;;;;4993354;28;20215;-67
2021/04/14 02:14:41;;;;;;;0.95;0.90;;;5.00;90.90;;;;;;4998341;28;20224;-67
2021/04/14 02:17:07;;;;;;;1.10;1.10;;;5.00;91.00;;;;;;4979631;28;20247;-67
2021/04/14 02:19:34;;;;;;;0.93;0.88;;;5.00;91.10;;;;;;4981065;28;20417;-67
2021/04/14 02:22:00;;;;;;;3.00;1.27;;;5.00;91.20;;;;;;4980592;28;20213;-69
2021/04/14 02:24:27;;;;;;;0.98;0.80;;;5.00;91.20;;;;;;4982861;28;20240;-68
2021/04/14 02:26:54;;;;;;;0.70;0.70;;;5.00;91.30;;;;;;4998599;28;20208;-69
2021/04/14 02:29:20;;;;;;;7.20;1.67;;;5.00;91.40;;;;;;4998036;28;20385;-68
2021/04/14 02:31:47;;;;;;;0.88;0.85;;;5.00;91.40;;;;;;4982847;28;20209;-71
2021/04/14 02:34:14;;;;;;;6.47;1.05;;;5.00;91.50;;;;;;4998683;28;20798;-69
2021/04/14 02:36:42;;;;;;;0.90;0.88;;;5.00;91.80;;;;;;4995428;28;20248;-70
2021/04/14 02:39:11;;;;;;;0.77;0.77;;;4.90;91.60;;;;;;4998933;28;20266;-69
2021/04/14 02:41:39;;;;;;;2.85;0.90;;;4.90;91.80;;;;;;5009782;28;20213;-69
2021/04/14 02:44:07;;;;;;;2.05;0.70;;;4.90;91.80;;;;;;4991974;28;20201;-70
2021/04/14 02:46:34;;;;;;;0.82;0.82;;;4.90;91.70;;;;;;5002012;28;20213;-70
2021/04/14 02:49:01;;;;;;;0.50;0.50;;;4.80;91.90;;;;;;5008655;28;20212;-68
2021/04/14 02:51:27;;;;;;;0.70;0.70;;;4.80;92.00;;;;;;4997759;28;20244;-68
2021/04/14 02:53:54;;;;;;;0.80;0.80;;;4.80;92.10;;;;;;5017866;28;20266;-69
2021/04/14 02:56:21;;;;;;;0.50;0.50;;;4.90;92.20;;;;;;5008294;28;20216;-68
2021/04/14 02:58:47;;;;;;;0.50;0.50;;;4.80;92.30;;;;;;5000050;28;20212;-70
2021/04/14 03:01:15;;;;;;;0.68;0.57;;;4.80;92.20;;;;;;5010773;28;20468;-70
2021/04/14 03:03:42;;;;;;;0.90;0.90;;;4.80;92.10;;;;;;5003320;28;20216;-69
2021/04/14 03:06:09;;;;;;;0.47;0.47;;;4.80;92.40;;;;;;5002111;28;20205;-69
2021/04/14 03:08:36;;;;;;;0.40;0.40;;;4.80;92.30;;;;;;5014157;28;20250;-70
2021/04/14 03:11:03;;;;;;;0.75;0.75;;;4.80;92.30;;;;;;5007491;28;20218;-70
2021/04/14 03:13:30;;;;;;;1.35;1.33;;;4.80;92.40;;;;;;5010265;28;20292;-68
2021/04/14 03:15:57;;;;;;;1.38;1.02;;;4.90;92.50;;;;;;4984895;28;20540;-69
2021/04/14 03:18:23;;;;;;;4.38;1.70;;;4.80;92.50;;;;;;5001859;28;20313;-68
2021/04/14 03:20:50;;;;;;;2.55;1.85;;;4.80;92.60;;;;;;4987190;28;20217;-69
2021/04/14 03:23:17;;;;;;;1.45;1.27;;;4.80;92.60;;;;;;5001910;28;20255;-69
2021/04/14 03:25:44;;;;;;;0.68;0.65;;;4.70;92.80;;;;;;5001827;28;20439;-68
2021/04/14 03:28:12;;;;;;;0.88;0.80;;;4.70;92.90;;;;;;5001036;28;20212;-68
2021/04/14 03:30:40;;;;;;;1.52;1.42;;;4.70;92.90;;;;;;5001259;28;20558;-70
2021/04/14 03:33:09;;;;;;;0.82;0.82;;;4.70;92.80;;;;;;5001212;28;20197;-68
2021/04/14 03:35:35;;;;;;;0.60;0.60;;;4.60;93.00;;;;;;4995232;28;20428;-68
2021/04/14 03:38:02;;;;;;;1.45;0.85;;;4.70;92.90;;;;;;4998336;28;20240;-68
2021/04/14 03:40:29;;;;;;;0.70;0.70;;;4.70;93.10;;;;;;5001022;28;20217;-67
2021/04/14 03:42:57;;;;;;;0.60;0.60;;;4.60;93.20;;;;;;4987141;28;20407;-69
2021/04/14 03:45:34;;;;;;;1.40;0.73;;;4.60;93.70;;;;;;4994146;28;20485;-68
2021/04/14 03:48:00;;;;;;;0.77;0.60;;;4.50;93.30;;;;;;4995330;28;20812;-68
2021/04/14 03:50:29;;;;;;;1.60;1.35;;;4.50;93.60;;;;;;4988685;28;20642;-68
2021/04/14 03:53:06;;;;;;;0.60;0.60;;;4.50;93.60;;;;;;4987831;28;20428;-67
2021/04/14 03:55:33;;;;;;;1.50;1.00;;;4.50;93.60;;;;;;4988720;28;20303;-67
2021/04/14 03:57:59;;;;;;;0.60;0.50;;;4.50;93.70;;;;;;5002372;28;20250;-69
2021/04/14 04:00:26;;;;;;;0.60;0.60;;;4.40;93.80;;;;;;4999294;28;20208;-69
2021/04/14 04:02:52;;;;;;;1.15;0.88;;;4.40;93.90;;;;;;4993139;28;20208;-69
2021/04/14 04:05:19;;;;;;;1.45;0.88;;;4.40;94.00;;;;;;5014540;28;20211;-67
2021/04/14 04:07:45;;;;;;;0.77;0.77;;;4.50;94.00;;;;;;5014944;28;20645;-68
2021/04/14 04:10:12;;;;;;;4.85;1.33;;;4.50;94.20;;;;;;5000643;28;20512;-67
2021/04/14 04:12:39;;;;;;;0.90;0.90;;;4.50;94.10;;;;;;4996345;28;20216;-68
2021/04/14 04:15:11;;;;;;;0.50;0.50;;;4.50;94.10;;;;;;4998058;28;20279;-71
2021/04/14 04:17:39;;;;;;;0.70;0.70;;;4.40;94.20;;;;;;5005802;28;20255;-68
2021/04/14 04:20:08;;;;;;;1.65;0.85;;;4.40;94.60;;;;;;5000628;28;20262;-68
2021/04/14 04:22:35;;;;;;;0.95;0.95;;;4.40;94.40;;;;;;4999457;28;20209;-67
2021/04/14 04:25:03;;;;;;;1.85;0.85;;;4.50;94.30;;;;;;5007497;28;20280;-67
2021/04/14 04:27:30;;;;;;;0.50;0.50;;;4.50;94.10;;;;;;5000013;28;20255;-69
2021/04/14 04:29:56;;;;;;;0.65;0.65;;;4.50;94.20;;;;;;5011639;28;20209;-69
2021/04/14 04:32:23;;;;;;;1.75;1.00;;;4.50;94.30;;;;;;4999481;28;20717;-68
2021/04/14 04:34:50;;;;;;;1.02;0.93;;;4.50;94.50;;;;;;5010626;28;20285;-68
2021/04/14 04:37:17;;;;;;;0.50;0.50;;;4.50;94.40;;;;;;5000129;28;20304;-69
2021/04/14 04:39:43;;;;;;;5.45;1.02;;;4.70;94.60;;;;;;5000123;28;20504;-69
2021/04/14 04:42:10;;;;;;;1.30;1.20;;;4.60;94.50;;;;;;5000488;28;20236;-69
2021/04/14 04:44:36;;;;;;;1.02;0.90;;;4.60;94.40;;;;;;5000022;28;20212;-68
2021/04/14 04:47:03;;;;;;;0.60;0.60;;;4.60;94.40;;;;;;5017945;28;20204;-68
2021/04/14 04:49:30;;;;;;;0.50;0.50;;;4.70;94.40;;;;;;5006250;28;20220;-70
2021/04/14 04:51:56;;;;;;;2.67;1.30;;;4.70;94.40;;;;;;4998419;28;20299;-69
2021/04/14 04:54:23;;;;;;;0.60;0.55;;;4.70;94.30;;;;;;5003188;28;20212;-68
2021/04/14 04:56:50;;;;;;;2.17;1.15;;;4.60;94.20;;;;;;5002759;28;20276;-68
2021/04/14 04:59:16;;;;;;;0.77;0.65;;;4.70;94.20;;;;;;4985301;28;20304;-70
2021/04/14 05:01:43;;;;;;;1.33;1.23;;;4.70;94.20;;;;;;4985246;28;20228;-70
2021/04/14 05:04:13;;;;;;;0.80;0.80;;;4.80;94.20;;;;;;5002516;28;20216;-69
2021/04/14 05:06:40;;;;;;;0.40;0.40;;;4.80;94.00;;;;;;4989485;28;20376;-72
2021/04/14 05:09:08;;;;;;;0.70;0.70;;;4.80;93.80;;;;;;5011244;28;20299;-69
2021/04/14 05:11:35;;;;;;;1.75;0.85;;;4.80;93.80;;;;;;5009055;28;20215;-69
2021/04/14 05:14:01;;;;;;;1.17;1.08;;;4.80;93.90;;;;;;5003658;28;20387;-70
2021/04/14 05:16:28;;;;;;;0.60;0.60;;;4.80;93.80;;;;;;5017088;28;20274;-69
2021/04/14 05:18:54;;;;;;;2.53;1.40;;;4.90;93.90;;;;;;5017635;28;20243;-69
2021/04/14 05:21:21;;;;;;;0.60;0.60;;;4.90;94.00;;;;;;5017192;28;20482;-68
2021/04/14 05:23:49;;;;;;;0.60;0.60;;;4.90;93.70;;;;;;5006170;28;20224;-69
2021/04/14 05:26:17;;;;;;;0.93;0.93;;;4.90;93.70;;;;;;5016189;28;20525;-70
2021/04/14 05:28:44;;;;;;;0.55;0.55;;;4.90;93.70;;;;;;5007652;28;20213;-68
2021/04/14 05:31:12;;;;;;;1.75;0.75;;;4.90;93.80;;;;;;4982537;28;20209;-69
2021/04/14 05:33:39;;;;;;;0.50;0.50;;;4.90;93.50;;;;;;4999027;28;20403;-69
2021/04/14 05:36:07;;;;;;;0.30;0.30;;;4.90;93.70;;;;;;5004824;28;20480;-68
2021/04/14 05:38:34;;;;;;;0.60;0.60;;;4.90;93.60;;;;;;5016596;28;20240;-69
2021/04/14 05:41:01;;;;;;;0.63;0.63;;;5.00;93.50;;;;;;5015628;28;20207;-67
2021/04/14 05:43:35;;;;;;;0.77;0.77;;;4.90;93.40;;;;;;4998569;28;20681;-68
2021/04/14 05:46:05;;;;;;;0.95;0.95;;;5.00;93.30;;;;;;4998868;28;20291;-69
2021/04/14 05:48:32;;;;;;;0.45;0.45;;;5.20;93.30;;;;;;4981036;28;20283;-69
2021/04/14 05:51:04;;;;;;;0.50;0.50;;;5.30;93.10;;;;;;4977444;28;20249;-68
2021/04/14 05:53:32;;;;;;;0.88;0.70;;;5.20;93.00;;;;;;4976369;28;20280;-68
2021/04/14 05:56:01;;;;;;;0.90;0.90;;;5.30;92.90;;;;;;4935721;28;20221;-69
2021/04/14 05:58:29;;;;;;;0.47;0.47;;;5.30;92.70;;;;;;4927424;28;20245;-68
2021/04/14 06:00:56;;;;;;;0.50;0.50;;;5.30;93.00;;;;;;4949705;28;20207;-68
2021/04/14 06:03:24;;;;;;;1.30;0.85;;;5.40;93.00;;;;;;4956535;28;20212;-67
2021/04/14 06:05:57;;;;;;;0.50;0.50;;;5.30;92.50;;;;;;4975566;28;20244;-68
2021/04/14 06:08:26;;;;;;;0.82;0.80;;;5.40;93.00;;;;;;4978614;28;20292;-69
2021/04/14 06:10:53;;;;;;;0.40;0.40;;;5.40;92.80;;;;;;4972145;28;20569;-69
2021/04/14 06:13:22;;;;;;;0.85;0.85;;;5.50;92.70;;;;;;4962027;28;20578;-68
2021/04/14 06:15:50;;;;;;;1.23;0.52;;;5.30;92.50;;;;;;4956171;28;20215;-68
2021/04/14 06:18:16;;;;;;;0.40;0.40;;;5.30;92.90;;;;;;4962948;28;20249;-69
2021/04/14 06:20:43;;;;;;;0.50;0.50;;;5.30;92.90;;;;;;4965231;28;20218;-69
2021/04/14 06:23:16;;;;;;;0.50;0.50;;;5.40;92.80;;;;;;4976068;28;20221;-69
2021/04/14 06:28:27;;;;;;;0.70;0.70;;;5.30;93.20;;;;;;4948041;28;20262;-70
2021/04/14 06:30:56;;;;;;;3.08;2.25;;;5.40;92.80;;;;;;4964135;28;20247;-70
2021/04/14 06:33:23;;;;;;;0.60;0.60;;;5.60;92.60;;;;;;4967017;28;20218;-69
2021/04/14 06:35:55;;;;;;;0.63;0.63;;;5.80;92.20;;;;;;4962927;28;20238;-69
2021/04/14 06:38:25;;;;;;;1.02;0.85;;;6.00;91.90;;;;;;4971224;28;20237;-69
2021/04/14 06:41:36;;;;;;;0.60;0.60;;;6.10;91.40;;;;;;4962208;28;20210;-70
2021/04/14 06:44:34;;;;;;;1.38;0.68;;;6.20;91.50;;;;;;4962895;28;20210;-70
2021/04/14 06:47:01;;;;;;;0.60;0.60;;;6.10;91.40;;;;;;4967437;28;20202;-69
2021/04/14 06:49:34;;;;;;;0.40;0.40;;;6.20;92.00;;;;;;4968105;28;20270;-70
2021/04/14 06:52:14;;;;;;;1.38;1.27;;;6.10;91.50;;;;;;4988046;28;20240;-69
2021/04/14 06:54:54;;;;;;;0.68;0.68;;;5.90;91.80;;;;;;4997683;28;20269;-69
2021/04/14 06:57:25;;;;;;;0.98;0.63;;;5.80;92.00;;;;;;4986331;28;20643;-70
2021/04/14 06:59:57;;;;;;;2.45;1.00;;;6.10;91.90;;;;;;4983850;28;20268;-69
2021/04/14 07:03:09;;;;;;;0.50;0.50;;;6.00;91.50;;;;;;4997712;28;20232;-70
2021/04/14 07:05:54;;;;;;;1.20;1.10;;;6.00;91.50;;;;;;4956515;28;20209;-69
2021/04/14 07:08:32;;;;;;;1.40;1.30;;;6.20;91.90;;;;;;4980975;28;20233;-69
2021/04/14 07:11:07;;;;;;;0.60;0.60;;;6.40;91.30;;;;;;4997214;28;20197;-69
2021/04/14 07:13:37;;;;;;;0.52;0.52;;;6.60;90.50;;;;;;4997436;28;20228;-68
2021/04/14 07:16:32;;;;;;;0.50;0.50;;;6.80;90.40;;;;;;4995961;28;20229;-70
2021/04/14 07:19:30;;;;;;;0.50;0.50;;;7.30;89.50;;;;;;4991224;28;20703;-70
2021/04/14 07:22:18;;;;;;;0.98;0.98;;;8.20;86.30;;;;;;5005411;28;20209;-70
2021/04/14 07:24:56;;;;;;;0.85;0.85;;;8.80;83.10;;;;;;5011587;28;20439;-69
2021/04/14 07:27:53;;;;;;;0.70;0.70;;;9.10;81.80;;;;;;5003105;28;20241;-70
2021/04/14 07:30:25;;;;;;;0.98;0.95;;;9.50;80.40;;;;;;4996169;28;20217;-68
2021/04/14 07:33:24;;;;;;;1.92;1.83;;;10.00;79.70;;;;;;5006762;28;20213;-70
2021/04/14 07:36:16;;;;;;;1.20;1.20;;;10.20;77.70;;;;;;4983403;28;20233;-70
2021/04/14 07:38:58;;;;;;;1.25;1.25;;;10.80;75.20;;;;;;4999895;28;20378;-69
2021/04/14 07:41:58;;;;;;;1.35;1.35;;;11.00;73.60;;;;;;5008046;28;20507;-69
2021/04/14 07:45:02;;;;;;;1.45;1.45;;;10.90;74.50;;;;;;5010146;28;20212;-70
2021/04/14 07:47:34;;;;;;;1.40;1.40;;;10.20;75.40;;;;;;4996192;28;20235;-69
2021/04/14 07:50:04;;;;;;;1.20;1.20;;;9.70;77.30;;;;;;5000396;28;20238;-70
2021/04/14 07:52:33;;;;;;;1.65;1.55;;;9.50;78.10;;;;;;5000625;28;20223;-74
2021/04/14 07:54:59;;;;;;;1.60;1.60;;;9.30;78.60;;;;;;5010095;28;20215;-69
2021/04/14 07:57:39;;;;;;;1.98;1.88;;;9.60;78.90;;;;;;5000391;28;20228;-70
2021/04/14 08:00:26;;;;;;;2.25;1.90;;;10.60;76.80;;;;;;4995826;28;20219;-70
2021/04/14 08:02:54;;;;;;;1.70;1.70;;;10.50;75.20;;;;;;4997629;28;20247;-71
2021/04/14 08:05:30;;;;;;;1.30;1.30;;;10.50;75.70;;;;;;4997905;28;20211;-71
2021/04/14 08:07:57;;;;;;;1.88;1.77;;;10.50;75.50;;;;;;4992854;28;20273;-71
2021/04/14 08:10:28;;;;;;;1.40;1.40;;;10.10;75.50;;;;;;5001057;28;20668;-73
2021/04/14 08:13:01;;;;;;;1.42;1.42;;;10.00;75.30;;;;;;5001906;28;20212;-70
2021/04/14 08:15:28;;;;;;;2.13;2.03;;;10.30;76.10;;;;;;4977364;28;20215;-70
2021/04/14 08:18:08;;;;;;;1.58;1.58;;;11.10;72.40;;;;;;5000866;28;20299;-73
2021/04/14 08:20:40;;;;;;;1.80;1.80;;;11.70;70.30;;;;;;4997522;28;20212;-70
2021/04/14 08:23:11;;;;;;;4.15;3.75;;;11.80;68.50;;;;;;5000587;28;20214;-69
2021/04/14 08:25:48;;;;;;;2.00;1.90;;;11.30;70.00;;;;;;5000433;28;20212;-72
2021/04/14 08:28:42;;;;;;;1.92;1.88;;;10.30;73.40;;;;;;5001096;28;20212;-69
2021/04/14 08:31:45;;;;;;;2.28;2.20;;;10.30;74.20;;;;;;5003819;28;20258;-70
2021/04/14 08:34:34;;;;;;;1.60;1.60;;;10.60;73.70;;;;;;5002317;28;20205;-70
2021/04/14 08:37:14;;;;;;;2.45;2.35;;;10.40;74.70;;;;;;4982444;28;20212;-72
2021/04/14 08:39:53;;;;;;;1.52;1.52;;;10.60;74.20;;;;;;4988203;28;20232;-73
2021/04/14 08:42:20;;;;;;;1.70;1.70;;;10.80;72.40;;;;;;5013643;28;20219;-71
2021/04/14 08:44:52;;;;;;;2.30;2.15;;;10.70;71.00;;;;;;4999691;28;20211;-72
2021/04/14 08:47:22;;;;;;;1.98;1.88;;;9.80;73.80;;;;;;4982432;28;20395;-70
2021/04/14 08:49:55;;;;;;;1.95;1.95;;;10.40;72.10;;;;;;5000389;28;20569;-71
2021/04/14 08:52:35;;;;;;;2.00;2.00;;;11.30;68.40;;;;;;4994790;28;20427;-71
2021/04/14 08:55:03;;;;;;;2.10;2.10;;;11.80;68.10;;;;;;4991994;28;20215;-72
2021/04/14 08:57:30;;;;;;;2.13;2.03;;;11.90;65.30;;;;;;4967662;28;20581;-72
2021/04/14 08:59:57;;;;;;;2.00;2.00;;;11.00;68.60;;;;;;4994197;28;20242;-72
2021/04/14 09:02:25;;;;;;;2.38;2.10;;;12.00;67.00;;;;;;4997805;28;20255;-71
2021/04/14 09:04:54;;;;;;;2.00;2.00;;;12.10;66.40;;;;;;5008577;28;20212;-70
2021/04/14 09:07:30;;;;;;;2.70;2.60;;;12.60;64.70;;;;;;4997745;28;20340;-73
2021/04/14 09:09:58;;;;;;;1.90;1.90;;;11.80;66.10;;;;;;4993093;28;20280;-70
2021/04/14 09:12:43;;;;;;;4.47;4.30;;;11.50;67.60;;;;;;4997110;28;20384;-71
2021/04/14 09:15:13;;;;;;;2.35;2.35;;;11.60;68.20;;;;;;4990008;28;20554;-72
2021/04/14 09:17:43;;;;;;;2.22;2.22;;;11.80;63.40;;;;;;4995981;28;20295;-73
2021/04/14 09:20:22;;;;;;;2.30;2.22;;;11.50;64.30;;;;;;4989747;28;20228;-70
2021/04/14 09:23:12;;;;;;;1.90;1.90;;;10.60;68.60;;;;;;4999156;28;20212;-71
2021/04/14 09:25:52;;;;;;;2.63;2.50;;;9.40;72.60;;;;;;4999299;28;20226;-71
2021/04/14 09:28:35;;;;;;;2.38;2.20;;;9.30;75.90;;;;;;4980002;28;20203;-70
2021/04/14 09:31:17;;;;;;;4.00;1.98;;;9.30;76.40;;;;;;4993631;28;20207;-71
2021/04/14 09:33:56;;;;;;;1.80;1.80;;;9.40;76.60;;;;;;4989246;28;20585;-69
2021/04/14 09:36:45;;;;;;;1.98;1.98;;;9.40;74.50;;;;;;4988927;28;20498;-70
2021/04/14 09:39:32;;;;;;;1.80;1.80;;;10.00;74.10;;;;;;4997662;28;20266;-71
2021/04/14 09:42:01;;;;;;;2.45;2.30;;;10.30;73.20;;;;;;4998805;28;20234;-72
2021/04/14 09:44:43;;;;;;;1.80;1.80;;;9.60;75.10;;;;;;4995736;28;20222;-72
2021/04/14 09:47:34;;;;;;;2.15;2.05;;;9.10;75.50;;;;;;4983427;28;20383;-72
2021/04/14 09:50:29;;;;;;;1.63;1.63;;;8.60;78.10;;;;;;4930640;28;1796237;-72
2021/04/14 09:53:15;;;;;;;1.90;1.90;;;8.70;77.30;;;;;;4963868;28;20211;-73
2021/04/14 09:55:59;;;;;;;2.28;2.17;;;8.50;78.20;;;;;;4998774;28;20210;-70
2021/04/14 09:58:50;;;;;;;1.98;1.88;;;8.60;77.50;;;;;;4997896;28;20242;-70
2021/04/14 10:01:28;;;;;;;1.90;1.90;;;8.90;76.60;;;;;;4998243;28;20240;-72
2021/04/14 10:04:19;;;;;;;2.78;2.00;;;9.30;76.70;;;;;;4995595;28;20287;-71
2021/04/14 10:06:55;;;;;;;2.38;2.28;;;9.50;74.70;;;;;;4990903;28;20277;-70
2021/04/14 10:09:30;;;;;;;1.60;1.60;;;10.00;74.00;;;;;;4997470;28;20293;-70
2021/04/14 10:12:14;;;;;;;2.08;2.08;;;10.10;72.00;;;;;;4986337;28;20240;-71
2021/04/14 10:14:52;;;;;;;2.00;2.00;;;10.00;70.80;;;;;;4985673;28;20255;-71
2021/04/14 10:17:23;;;;;;;2.08;2.05;;;9.20;71.70;;;;;;4980444;28;20210;-72
2021/04/14 10:20:00;;;;;;;2.25;2.15;;;8.50;74.50;;;;;;4999338;28;20209;-72
2021/04/14 10:22:33;;;;;;;2.10;2.00;;;8.00;77.00;;;;;;4996484;28;20217;-70
2021/04/14 10:25:20;;;;;;;2.03;1.95;;;7.90;79.10;;;;;;4979183;28;20202;-69
2021/04/14 10:27:58;;;;;;;2.38;2.20;;;8.00;79.30;;;;;;4992715;28;20249;-70
2021/04/14 10:30:38;;;;;;;1.80;1.80;;;8.40;79.20;;;;;;4989159;28;20238;-73
2021/04/14 10:33:28;;;;;;;1.90;1.90;;;8.80;78.00;;;;;;4997641;28;20278;-70
2021/04/14 10:36:07;;;;;;;3.08;2.80;;;9.00;76.20;;;;;;4997890;28;20245;-70
2021/04/14 10:38:36;;;;;;;2.15;2.05;;;9.30;75.50;;;;;;4997671;28;20308;-70
2021/04/14 10:41:33;;;;;;;2.00;2.00;;;9.70;72.50;;;;;;4987009;28;20515;-71
2021/04/14 10:44:22;;;;;;;1.90;1.90;;;9.70;71.20;;;;;;4981384;28;20241;-69
2021/04/14 10:47:01;;;;;;;2.10;2.10;;;9.30;72.40;;;;;;4987130;28;20281;-70
2021/04/14 10:49:30;;;;;;;2.50;2.30;;;9.30;71.90;;;;;;4999463;28;20215;-72
2021/04/14 10:52:03;;;;;;;2.10;2.00;;;9.00;72.80;;;;;;4993214;28;20292;-71
2021/04/14 10:54:35;;;;;;;2.00;2.00;;;9.10;73.00;;;;;;4981340;28;20259;-69
2021/04/14 10:57:11;;;;;;;2.30;2.20;;;9.40;74.00;;;;;;4999975;28;20241;-71
2021/04/14 10:59:40;;;;;;;4.65;2.03;;;9.10;77.10;;;;;;4997980;28;20213;-71
2021/04/14 11:02:14;;;;;;;1.92;1.83;;;9.00;78.30;;;;;;4983278;28;20404;-70
2021/04/14 11:04:48;;;;;;;1.90;1.90;;;8.90;78.40;;;;;;4997187;28;20449;-70
2021/04/14 11:07:24;;;;;;;2.33;2.22;;;8.90;78.90;;;;;;5000838;28;20225;-70
2021/04/14 11:09:55;;;;;;;2.20;2.00;;;9.00;77.30;;;;;;5006153;28;20213;-70
2021/04/14 11:12:25;;;;;;;2.13;2.03;;;9.30;77.50;;;;;;5000157;28;20793;-72
2021/04/14 11:15:00;;;;;;;2.10;2.00;;;9.60;75.50;;;;;;4997528;28;20211;-69
2021/04/14 11:17:29;;;;;;;1.65;1.65;;;9.40;76.00;;;;;;5005267;28;20214;-70
2021/04/14 11:20:07;;;;;;;1.90;1.80;;;9.00;77.40;;;;;;4995881;28;20205;-71
2021/04/14 11:22:45;;;;;;;1.40;1.40;;;8.60;78.30;;;;;;5005816;28;20245;-71
2021/04/14 11:25:27;;;;;;;2.00;2.00;;;8.60;77.90;;;;;;5000937;28;20241;-71
2021/04/14 11:28:06;;;;;;;1.50;1.50;;;8.60;76.40;;;;;;5013422;28;20206;-70
2021/04/14 11:30:50;;;;;;;2.10;2.00;;;8.80;76.10;;;;;;5009461;28;20235;-70
2021/04/14 11:33:19;;;;;;;2.30;2.15;;;9.10;74.60;;;;;;4994496;28;20225;-70
2021/04/14 11:35:50;;;;;;;2.45;2.35;;;9.00;74.10;;;;;;4996832;28;20233;-69
2021/04/14 11:38:41;;;;;;;1.90;1.90;;;8.80;75.30;;;;;;5003250;28;20562;-68
2021/04/14 11:41:40;;;;;;;2.30;2.20;;;8.50;77.20;;;;;;5018227;28;20241;-69
2021/04/14 11:44:25;;;;;;;1.45;1.45;;;8.20;79.60;;;;;;4992539;28;20209;-69
2021/04/14 11:47:02;;;;;;;1.80;1.70;;;7.80;84.40;;;;;;5003578;28;20237;-70
2021/04/14 11:49:40;;;;;;;1.73;1.67;;;7.70;85.60;;;;;;5005896;28;20206;-70
2021/04/14 11:52:35;;;;;;;1.30;1.30;;;7.50;84.10;;;;;;5000695;28;20459;-71
2021/04/14 11:55:24;;;;;;;1.50;1.50;;;7.70;84.40;;;;;;5014762;28;20206;-71
2021/04/14 11:58:00;;;;;;;1.48;1.48;;;8.00;81.60;;;;;;4996234;28;20272;-70
2021/04/14 12:00:38;;;;;;;1.52;1.52;;;8.30;80.40;;;;;;4985222;28;20222;-72
2021/04/14 12:03:26;;;;;;;1.90;1.90;;;8.50;79.60;;;;;;4987261;28;20668;-71
2021/04/14 12:05:59;;;;;;;1.70;1.70;;;8.70;79.40;;;;;;4987712;28;20415;-69
2021/04/14 12:08:29;;;;;;;1.80;1.80;;;8.50;77.20;;;;;;4988857;28;20226;-70
2021/04/14 12:10:57;;;;;;;2.50;2.30;;;8.60;78.80;;;;;;5009095;28;20210;-70
2021/04/14 12:13:24;;;;;;;1.70;1.70;;;8.90;77.00;;;;;;5004208;28;20232;-70
2021/04/14 12:15:53;;;;;;;1.58;1.58;;;9.20;76.20;;;;;;5000492;28;20228;-69
2021/04/14 12:18:19;;;;;;;2.72;2.58;;;9.50;74.50;;;;;;4999136;28;20223;-69
2021/04/14 12:20:47;;;;;;;6.18;3.40;;;9.50;73.60;;;;;;4993761;28;20215;-69
2021/04/14 12:23:15;;;;;;;2.20;2.10;;;9.60;73.80;;;;;;5005326;28;20547;-70
2021/04/14 12:25:44;;;;;;;6.00;2.17;;;9.30;73.50;;;;;;4997320;28;20211;-69
2021/04/14 12:28:14;;;;;;;2.78;2.67;;;9.60;75.80;;;;;;4986608;28;20202;-71
2021/04/14 12:30:43;;;;;;;2.00;2.00;;;9.50;74.10;;;;;;5010302;28;20289;-75
2021/04/14 12:33:11;;;;;;;2.22;2.15;;;9.30;73.10;;;;;;5004721;28;20242;-70
2021/04/14 12:35:39;;;;;;;2.50;2.40;;;9.00;72.90;;;;;;5004448;28;20660;-69
2021/04/14 12:38:07;;;;;;;2.28;2.20;;;8.80;74.60;;;;;;5004384;28;20218;-69
2021/04/14 12:40:38;;;;;;;1.92;1.92;;;9.00;75.10;;;;;;5006312;28;20220;-69
2021/04/14 12:43:08;;;;;;;2.00;2.00;;;8.90;75.30;;;;;;4996306;28;20213;-70
2021/04/14 12:45:53;;;;;;;2.20;2.20;;;8.60;75.80;;;;;;5007552;28;20213;-71
2021/04/14 12:48:27;;;;;;;2.50;2.40;;;8.50;74.90;;;;;;5001124;28;20513;-70
2021/04/14 12:51:16;;;;;;;1.90;1.90;;;8.50;73.50;;;;;;4983610;28;20438;-69
2021/04/14 12:54:11;;;;;;;2.40;2.30;;;8.60;73.60;;;;;;4976215;28;20210;-71
2021/04/14 12:56:57;;;;;;;1.90;1.90;;;8.80;73.90;;;;;;4988982;28;20213;-68
2021/04/14 12:59:39;;;;;;;1.98;1.92;;;8.80;74.10;;;;;;4970403;28;20261;-69
2021/04/14 13:02:20;;;;;;;4.88;4.68;;;8.50;76.60;;;;;;4979608;28;20398;-69
2021/04/14 13:05:07;;;;;;;2.03;1.92;;;8.30;76.50;;;;;;4979936;28;20389;-69
2021/04/14 13:08:11;;;;;;;1.98;1.88;;;8.00;77.90;;;;;;4961703;28;20257;-70
2021/04/14 13:10:53;;;;;;;1.90;1.80;;;7.80;77.40;;;;;;4978305;28;20218;-70
2021/04/14 13:13:22;;;;;;;2.58;2.47;;;7.90;78.00;;;;;;4975562;28;20207;-69
2021/04/14 13:16:03;;;;;;;2.38;2.22;;;7.80;77.20;;;;;;4978788;28;20215;-69
2021/04/14 13:18:32;;;;;;;3.60;2.25;;;7.90;77.50;;;;;;4971513;28;20238;-68
2021/04/14 13:21:11;;;;;;;2.00;1.90;;;8.10;76.60;;;;;;4977464;28;20517;-69
2021/04/14 13:23:46;;;;;;;1.80;1.80;;;8.30;75.20;;;;;;4969767;28;20214;-69
2021/04/14 13:26:20;;;;;;;1.90;1.90;;;8.40;74.20;;;;;;4976460;28;20215;-67
2021/04/14 13:28:55;;;;;;;2.60;2.50;;;8.50;74.30;;;;;;4972307;28;20211;-68